Time;durP1;ratioP1;P1;durP2;ratioP2;P2;SDS_P1;SDS_P2;PMS_P1;PMS_P2;Temp;Humidity;BMP_temperature;BMP_pressure;BME280_temperature;BME280_humidity;BME280_pressure;Samples;Min_cycle;Max_cycle;Signal;HPM_P1;HPM_P2
2021/10/12 00:00:42;;;;;;;24.02;15.27;;;;;;;;;;6225840;28;20081;-70
2021/10/12 00:03:44;;;;;;;19.80;13.63;;;;;;;;;;6231133;28;20072;-67
2021/10/12 00:06:46;;;;;;;25.83;14.60;;;;;;;;;;6228235;28;20115;-67
2021/10/12 00:09:49;;;;;;;24.08;13.30;;;;;;;;;;6239826;28;20049;-67
2021/10/12 00:12:51;;;;;;;22.27;14.70;;;;;;;;;;6233106;28;20123;-67
2021/10/12 00:15:53;;;;;;;21.05;14.02;;;;;;;;;;6229594;28;20130;-67
2021/10/12 00:18:54;;;;;;;20.75;13.25;;;;;;;;;;6231654;28;20104;-67
2021/10/12 00:21:56;;;;;;;21.80;13.82;;;;;;;;;;6228139;28;20370;-68
2021/10/12 00:24:59;;;;;;;23.40;13.85;;;;;;;;;;6237960;28;20118;-67
2021/10/12 00:28:01;;;;;;;22.50;14.17;;;;;;;;;;6229398;28;20504;-67
2021/10/12 00:31:03;;;;;;;20.80;12.85;;;;;;;;;;6219845;28;21046;-70
2021/10/12 00:34:05;;;;;;;19.98;13.43;;;;;;;;;;6234302;28;20570;-67
2021/10/12 00:37:07;;;;;;;19.42;12.75;;;;;;;;;;6227576;28;20055;-67
2021/10/12 00:40:11;;;;;;;21.30;12.80;;;;;;;;;;6230713;28;20073;-70
2021/10/12 00:43:13;;;;;;;22.70;12.60;;;;;;;;;;6234389;28;20073;-67
2021/10/12 00:46:14;;;;;;;21.15;12.98;;;;;;;;;;6224123;28;20122;-67
2021/10/12 00:49:16;;;;;;;19.33;13.13;;;;;;;;;;6232843;28;20054;-67
2021/10/12 00:52:18;;;;;;;16.02;12.00;;;;;;;;;;6231383;28;20115;-66
2021/10/12 00:55:21;;;;;;;17.30;12.43;;;;;;;;;;6223307;28;20114;-70
2021/10/12 00:58:22;;;;;;;18.90;13.07;;;;;;;;;;6238142;28;20121;-69
2021/10/12 01:01:24;;;;;;;20.55;12.18;;;;;;;;;;6220863;28;20120;-69
2021/10/12 01:04:26;;;;;;;19.30;11.65;;;;;;;;;;6229314;28;20191;-67
2021/10/12 01:07:28;;;;;;;18.17;12.02;;;;;;;;;;6222685;28;20124;-67
2021/10/12 01:10:31;;;;;;;21.20;12.40;;;;;;;;;;6223169;28;20118;-69
2021/10/12 01:13:33;;;;;;;18.40;12.60;;;;;;;;;;6230364;28;20058;-69
2021/10/12 01:16:35;;;;;;;17.38;11.70;;;;;;;;;;6221314;28;20166;-67
2021/10/12 01:19:36;;;;;;;19.48;11.85;;;;;;;;;;6236816;28;20430;-67
2021/10/12 01:22:41;;;;;;;16.05;11.63;;;;;;;;;;6223046;28;20073;-66
2021/10/12 01:25:42;;;;;;;17.33;11.70;;;;;;;;;;6224430;28;20057;-68
2021/10/12 01:28:44;;;;;;;19.50;12.68;;;;;;;;;;6236712;28;20068;-67
2021/10/12 01:31:46;;;;;;;18.40;10.73;;;;;;;;;;6223775;28;20520;-70
2021/10/12 01:34:47;;;;;;;18.75;11.07;;;;;;;;;;6234825;28;20052;-67
2021/10/12 01:37:50;;;;;;;16.25;11.98;;;;;;;;;;6225301;28;20168;-67
2021/10/12 01:40:52;;;;;;;18.00;10.35;;;;;;;;;;6221524;28;20073;-68
2021/10/12 01:43:54;;;;;;;18.90;11.70;;;;;;;;;;6237241;28;20132;-67
2021/10/12 01:46:55;;;;;;;16.70;10.90;;;;;;;;;;6220864;28;20115;-67
2021/10/12 01:49:57;;;;;;;20.00;10.02;;;;;;;;;;6233344;28;20571;-67
2021/10/12 01:53:00;;;;;;;17.40;10.73;;;;;;;;;;6224840;28;20186;-67
2021/10/12 01:56:04;;;;;;;13.60;9.60;;;;;;;;;;6222319;28;20921;-68
2021/10/12 01:59:05;;;;;;;13.73;10.40;;;;;;;;;;6236455;28;20396;-68
2021/10/12 02:02:07;;;;;;;14.27;10.48;;;;;;;;;;6216659;28;20049;-67
2021/10/12 02:05:09;;;;;;;13.85;10.05;;;;;;;;;;6230440;28;20083;-69
2021/10/12 02:08:12;;;;;;;15.02;10.48;;;;;;;;;;6228556;28;20124;-68
2021/10/12 02:11:14;;;;;;;16.27;10.63;;;;;;;;;;6227820;28;20116;-67
2021/10/12 02:14:16;;;;;;;19.25;11.25;;;;;;;;;;6237614;28;20134;-67
2021/10/12 02:17:18;;;;;;;18.73;10.38;;;;;;;;;;6218781;28;20103;-67
2021/10/12 02:20:19;;;;;;;16.73;10.38;;;;;;;;;;6225823;28;20154;-66
2021/10/12 02:23:22;;;;;;;18.88;10.77;;;;;;;;;;6227634;28;20163;-67
2021/10/12 02:26:24;;;;;;;19.58;11.18;;;;;;;;;;6225751;28;20092;-67
2021/10/12 02:29:26;;;;;;;19.10;10.73;;;;;;;;;;6235221;28;20057;-67
2021/10/12 02:32:27;;;;;;;15.88;11.18;;;;;;;;;;6217799;28;20130;-68
2021/10/12 02:35:29;;;;;;;16.92;11.35;;;;;;;;;;6225001;28;20108;-69
2021/10/12 02:38:32;;;;;;;17.23;10.30;;;;;;;;;;6236504;28;20556;-67
2021/10/12 02:41:34;;;;;;;15.27;10.47;;;;;;;;;;6222064;28;20112;-67
2021/10/12 02:44:35;;;;;;;19.35;10.32;;;;;;;;;;6235391;28;20181;-67
2021/10/12 02:47:37;;;;;;;17.95;10.13;;;;;;;;;;6219722;28;20088;-67
2021/10/12 02:50:39;;;;;;;17.63;10.30;;;;;;;;;;6221759;28;20132;-68
2021/10/12 02:53:42;;;;;;;15.23;9.63;;;;;;;;;;6234731;28;20056;-67
2021/10/12 02:56:43;;;;;;;15.48;10.27;;;;;;;;;;6221376;28;20110;-67
2021/10/12 02:59:45;;;;;;;14.40;9.30;;;;;;;;;;6232814;28;20095;-69
2021/10/12 03:02:46;;;;;;;13.95;9.98;;;;;;;;;;6214581;28;20041;-67
2021/10/12 03:05:48;;;;;;;16.70;10.00;;;;;;;;;;6220689;28;20425;-69
2021/10/12 03:08:51;;;;;;;15.25;9.60;;;;;;;;;;6231983;28;20136;-67
2021/10/12 03:11:53;;;;;;;14.77;9.23;;;;;;;;;;6223753;28;20562;-67
2021/10/12 03:14:54;;;;;;;16.27;10.40;;;;;;;;;;6234611;28;20057;-67
2021/10/12 03:17:56;;;;;;;13.52;9.20;;;;;;;;;;6219422;28;20144;-67
2021/10/12 03:20:57;;;;;;;16.95;8.88;;;;;;;;;;6219377;28;20045;-66
2021/10/12 03:24:00;;;;;;;16.35;10.15;;;;;;;;;;6227777;28;20102;-67
2021/10/12 03:27:02;;;;;;;14.30;9.10;;;;;;;;;;6225833;28;20052;-67
2021/10/12 03:30:04;;;;;;;15.50;9.70;;;;;;;;;;6241186;28;20195;-67
2021/10/12 03:33:06;;;;;;;12.88;8.90;;;;;;;;;;6222147;28;20050;-68
2021/10/12 03:36:14;;;;;;;16.63;9.57;;;;;;;;;;6225920;28;20597;-67
2021/10/12 03:39:17;;;;;;;12.93;9.07;;;;;;;;;;6235986;28;20405;-67
2021/10/12 03:42:19;;;;;;;15.98;9.20;;;;;;;;;;6230529;28;20550;-68
2021/10/12 03:45:20;;;;;;;13.65;9.68;;;;;;;;;;6227731;28;20045;-69
2021/10/12 03:48:22;;;;;;;14.02;8.73;;;;;;;;;;6233640;28;20049;-69
2021/10/12 03:51:24;;;;;;;15.10;9.20;;;;;;;;;;6225003;28;20041;-67
2021/10/12 03:54:27;;;;;;;14.15;8.93;;;;;;;;;;6237202;28;20122;-68
2021/10/12 03:57:28;;;;;;;15.02;9.68;;;;;;;;;;6229307;28;20183;-68
2021/10/12 04:00:30;;;;;;;16.58;9.75;;;;;;;;;;6228388;28;20045;-68
2021/10/12 04:03:31;;;;;;;17.08;9.85;;;;;;;;;;6240108;28;20091;-67
2021/10/12 04:06:33;;;;;;;13.85;9.40;;;;;;;;;;6229813;28;21605;-67
2021/10/12 04:09:36;;;;;;;15.27;9.68;;;;;;;;;;6234472;28;20041;-66
2021/10/12 04:12:38;;;;;;;15.05;9.88;;;;;;;;;;6231142;28;20521;-67
2021/10/12 04:15:39;;;;;;;15.32;10.15;;;;;;;;;;6222856;28;20140;-67
2021/10/12 04:18:41;;;;;;;14.90;9.82;;;;;;;;;;6235151;28;20166;-67
2021/10/12 04:21:42;;;;;;;16.33;10.00;;;;;;;;;;6228421;28;20409;-67
2021/10/12 04:24:45;;;;;;;13.85;9.90;;;;;;;;;;6236944;28;20511;-68
2021/10/12 04:27:47;;;;;;;15.63;9.65;;;;;;;;;;6230328;28;20038;-67
2021/10/12 04:30:49;;;;;;;15.82;9.05;;;;;;;;;;6229265;28;20045;-67
2021/10/12 04:33:50;;;;;;;16.45;9.18;;;;;;;;;;6233317;28;20140;-67
2021/10/12 04:36:52;;;;;;;13.10;8.88;;;;;;;;;;6228532;28;20129;-67
2021/10/12 04:39:55;;;;;;;13.32;8.93;;;;;;;;;;6237190;28;20055;-67
2021/10/12 04:42:56;;;;;;;15.45;9.60;;;;;;;;;;6227814;28;20041;-67
2021/10/12 04:45:58;;;;;;;13.50;8.73;;;;;;;;;;6228688;28;20098;-67
2021/10/12 04:48:59;;;;;;;14.32;9.07;;;;;;;;;;6236396;28;20055;-67
2021/10/12 04:52:01;;;;;;;16.40;9.35;;;;;;;;;;6230869;28;20049;-68
2021/10/12 04:55:05;;;;;;;16.38;8.88;;;;;;;;;;6241151;28;20059;-67
2021/10/12 04:58:06;;;;;;;22.73;9.63;;;;;;;;;;6231545;28;20120;-67
2021/10/12 05:01:08;;;;;;;18.63;9.38;;;;;;;;;;6224200;28;20087;-66
2021/10/12 05:04:09;;;;;;;13.90;9.30;;;;;;;;;;6235160;28;20053;-67
2021/10/12 05:07:11;;;;;;;12.07;9.18;;;;;;;;;;6227871;28;20045;-67
2021/10/12 05:10:14;;;;;;;13.75;9.43;;;;;;;;;;6230632;28;20052;-68
2021/10/12 05:13:16;;;;;;;19.38;9.80;;;;;;;;;;6231396;28;20495;-67
2021/10/12 05:16:19;;;;;;;14.88;9.55;;;;;;;;;;6219622;28;20087;-66
2021/10/12 05:19:21;;;;;;;14.52;9.90;;;;;;;;;;6234069;28;20172;-66
2021/10/12 05:22:22;;;;;;;12.75;8.82;;;;;;;;;;6231565;28;20140;-74
2021/10/12 05:25:25;;;;;;;13.02;8.73;;;;;;;;;;6232698;28;20045;-69
2021/10/12 05:28:27;;;;;;;15.43;9.18;;;;;;;;;;6238138;28;20176;-68
2021/10/12 05:31:28;;;;;;;14.65;9.40;;;;;;;;;;6227856;28;20051;-70
2021/10/12 05:34:30;;;;;;;16.55;9.40;;;;;;;;;;6238094;28;20041;-71
2021/10/12 05:37:32;;;;;;;16.00;8.88;;;;;;;;;;6228401;28;20067;-72
2021/10/12 05:40:35;;;;;;;15.85;9.23;;;;;;;;;;6226108;28;20128;-72
2021/10/12 05:43:37;;;;;;;14.65;8.77;;;;;;;;;;6212935;28;20133;-69
2021/10/12 05:46:38;;;;;;;15.30;9.27;;;;;;;;;;6227064;28;20103;-68
2021/10/12 05:49:41;;;;;;;17.52;9.55;;;;;;;;;;6243151;28;20382;-69
2021/10/12 05:52:48;;;;;;;15.48;9.40;;;;;;;;;;6229891;28;20176;-69
2021/10/12 05:55:55;;;;;;;22.38;10.45;;;;;;;;;;6229755;28;20041;-67
2021/10/12 05:58:56;;;;;;;17.15;9.68;;;;;;;;;;6240743;28;20649;-69
2021/10/12 06:01:58;;;;;;;16.50;9.98;;;;;;;;;;6227639;28;20057;-69
2021/10/12 06:04:59;;;;;;;17.52;10.65;;;;;;;;;;6239318;28;20176;-69
2021/10/12 06:08:01;;;;;;;16.60;10.05;;;;;;;;;;6230665;28;20079;-69
2021/10/12 06:11:05;;;;;;;16.25;9.52;;;;;;;;;;6232005;28;20180;-69
2021/10/12 06:14:07;;;;;;;18.67;10.75;;;;;;;;;;6231140;28;20067;-68
2021/10/12 06:17:08;;;;;;;20.63;11.35;;;;;;;;;;6221424;28;20120;-69
2021/10/12 06:20:11;;;;;;;22.67;11.35;;;;;;;;;;6234598;28;20041;-73
2021/10/12 06:23:12;;;;;;;18.52;11.43;;;;;;;;;;6239977;28;20047;-69
2021/10/12 06:26:15;;;;;;;15.95;11.15;;;;;;;;;;6229549;28;20521;-68
2021/10/12 06:29:17;;;;;;;20.95;11.65;;;;;;;;;;6234461;28;20038;-69
2021/10/12 06:32:18;;;;;;;17.15;11.98;;;;;;;;;;6221627;28;20391;-69
2021/10/12 06:35:20;;;;;;;19.83;12.48;;;;;;;;;;6230059;28;20046;-69
2021/10/12 06:38:22;;;;;;;24.95;12.80;;;;;;;;;;6236736;28;20037;-68
2021/10/12 06:41:25;;;;;;;18.05;12.10;;;;;;;;;;6197464;28;20069;-68
2021/10/12 06:44:26;;;;;;;17.90;11.35;;;;;;;;;;6235922;28;20507;-69
2021/10/12 06:47:28;;;;;;;24.80;11.82;;;;;;;;;;6219974;28;20057;-68
2021/10/12 06:50:30;;;;;;;18.92;12.65;;;;;;;;;;6226206;28;20166;-73
2021/10/12 06:53:31;;;;;;;19.02;11.18;;;;;;;;;;6238193;28;20041;-69
2021/10/12 06:56:34;;;;;;;19.75;11.07;;;;;;;;;;6230619;28;20094;-70
2021/10/12 06:59:36;;;;;;;17.33;11.80;;;;;;;;;;6236108;28;20046;-69
2021/10/12 07:02:37;;;;;;;25.35;11.68;;;;;;;;;;6222085;28;20050;-68
2021/10/12 07:05:39;;;;;;;16.30;11.13;;;;;;;;;;6227479;28;20397;-69
2021/10/12 07:08:40;;;;;;;20.15;11.63;;;;;;;;;;6238752;28;20132;-68
2021/10/12 07:11:44;;;;;;;19.40;11.20;;;;;;;;;;6239384;28;20057;-70
2021/10/12 07:14:45;;;;;;;20.63;10.52;;;;;;;;;;6242544;28;20049;-69
2021/10/12 07:17:47;;;;;;;16.65;9.88;;;;;;;;;;6224580;28;20179;-69
2021/10/12 07:20:48;;;;;;;16.02;9.77;;;;;;;;;;6224044;28;20063;-68
2021/10/12 07:23:50;;;;;;;21.52;9.52;;;;;;;;;;6238241;28;20060;-69
2021/10/12 07:26:53;;;;;;;16.77;10.02;;;;;;;;;;6232101;28;20187;-69
2021/10/12 07:29:55;;;;;;;18.20;10.13;;;;;;;;;;6242355;28;20440;-70
2021/10/12 07:32:57;;;;;;;16.30;9.43;;;;;;;;;;6224372;28;20045;-69
2021/10/12 07:35:58;;;;;;;12.95;8.63;;;;;;;;;;6227793;28;20545;-69
2021/10/12 07:39:00;;;;;;;12.63;7.68;;;;;;;;;;6234754;28;20046;-69
2021/10/12 07:42:05;;;;;;;12.50;7.35;;;;;;;;;;6224709;28;20041;-69
2021/10/12 07:45:07;;;;;;;11.90;6.88;;;;;;;;;;6240230;28;20050;-73
2021/10/12 07:48:09;;;;;;;12.13;6.97;;;;;;;;;;6229376;28;20164;-69
2021/10/12 07:51:11;;;;;;;14.52;7.82;;;;;;;;;;6225879;28;20052;-69
2021/10/12 07:54:16;;;;;;;12.52;7.75;;;;;;;;;;6235952;28;20129;-70
2021/10/12 07:57:20;;;;;;;16.52;8.60;;;;;;;;;;6229483;28;20537;-69
2021/10/12 08:00:21;;;;;;;12.43;8.65;;;;;;;;;;6225570;28;20041;-73
2021/10/12 08:03:23;;;;;;;14.07;8.48;;;;;;;;;;6235385;28;20132;-69
2021/10/12 08:06:24;;;;;;;12.75;7.93;;;;;;;;;;6210325;28;20042;-68
2021/10/12 08:09:26;;;;;;;15.80;8.77;;;;;;;;;;6241298;28;20041;-69
2021/10/12 08:12:29;;;;;;;12.43;8.52;;;;;;;;;;6234032;28;20041;-70
2021/10/12 08:15:30;;;;;;;13.13;8.32;;;;;;;;;;6232395;28;20041;-73
2021/10/12 08:18:32;;;;;;;10.63;8.00;;;;;;;;;;6239975;28;20049;-72
2021/10/12 08:21:35;;;;;;;14.25;9.27;;;;;;;;;;6232457;28;20424;-70
2021/10/12 08:24:37;;;;;;;13.17;8.63;;;;;;;;;;6239753;28;20486;-69
2021/10/12 08:27:40;;;;;;;17.13;8.77;;;;;;;;;;6236751;28;20447;-70
2021/10/12 08:30:42;;;;;;;;;;;;;;;;;;6236455;28;20033;-74
2021/10/12 08:33:44;;;;;;;12.63;7.72;;;;;;;;;;6237934;28;20560;-68
2021/10/12 08:36:45;;;;;;;12.45;7.65;;;;;;;;;;6231542;28;20187;-72
2021/10/12 08:39:47;;;;;;;14.20;7.65;;;;;;;;;;6240225;28;20132;-68
2021/10/12 08:42:51;;;;;;;10.75;7.03;;;;;;;;;;6226224;28;20072;-68
2021/10/12 08:45:53;;;;;;;12.05;7.78;;;;;;;;;;6221813;28;20079;-68
2021/10/12 08:48:56;;;;;;;14.43;8.40;;;;;;;;;;6234915;28;20037;-66
2021/10/12 08:51:58;;;;;;;16.10;8.95;;;;;;;;;;6231825;28;20064;-68
2021/10/12 08:54:59;;;;;;;13.38;9.55;;;;;;;;;;6228497;28;20049;-69
2021/10/12 08:58:04;;;;;;;12.80;9.95;;;;;;;;;;6230223;28;20060;-68
2021/10/12 09:01:07;;;;;;;14.70;9.77;;;;;;;;;;6230219;28;20489;-68
2021/10/12 09:04:08;;;;;;;17.92;10.55;;;;;;;;;;6239989;28;20125;-69
2021/10/12 09:07:17;;;;;;;14.80;9.73;;;;;;;;;;6229740;28;20042;-68
2021/10/12 09:10:20;;;;;;;15.57;8.52;;;;;;;;;;6235878;28;20258;-69
2021/10/12 09:13:23;;;;;;;;;;;;;;;;;;6241829;28;20072;-68
2021/10/12 09:16:31;;;;;;;14.10;9.57;;;;;;;;;;6230766;28;19957;-69
2021/10/12 09:19:34;;;;;;;12.75;9.25;;;;;;;;;;6240726;28;20045;-68
2021/10/12 09:22:35;;;;;;;13.00;9.35;;;;;;;;;;6229791;28;20044;-69
2021/10/12 09:25:39;;;;;;;13.05;9.82;;;;;;;;;;6229237;28;20045;-68
2021/10/12 09:28:42;;;;;;;17.65;9.57;;;;;;;;;;6243675;28;20144;-68
2021/10/12 09:31:46;;;;;;;17.23;10.32;;;;;;;;;;6203450;28;20168;-68
2021/10/12 09:34:47;;;;;;;16.05;10.35;;;;;;;;;;6232794;28;20144;-72
2021/10/12 09:38:01;;;;;;;15.02;10.65;;;;;;;;;;6219238;28;20053;-69
2021/10/12 09:41:07;;;;;;;13.00;9.88;;;;;;;;;;6223667;28;20088;-68
2021/10/12 09:44:15;;;;;;;16.15;10.85;;;;;;;;;;6233723;28;20052;-68
2021/10/12 09:47:17;;;;;;;15.13;10.68;;;;;;;;;;6225038;28;20370;-68
2021/10/12 09:50:18;;;;;;;14.55;10.93;;;;;;;;;;6233478;28;20065;-68
2021/10/12 09:53:31;;;;;;;16.02;10.55;;;;;;;;;;6234732;28;20508;-69
2021/10/12 09:56:33;;;;;;;17.35;11.50;;;;;;;;;;6223944;28;20061;-69
2021/10/12 09:59:36;;;;;;;11.95;9.68;;;;;;;;;;6239023;28;20124;-69
2021/10/12 10:02:38;;;;;;;14.52;10.10;;;;;;;;;;6223752;28;20062;-69
2021/10/12 10:05:42;;;;;;;14.85;11.30;;;;;;;;;;6226589;28;20060;-70
2021/10/12 10:08:48;;;;;;;14.88;10.38;;;;;;;;;;6239410;28;20057;-70
2021/10/12 10:11:49;;;;;;;60.92;42.53;;;;;;;;;;6228461;28;20049;-69
2021/10/12 10:14:53;;;;;;;35.63;23.10;;;;;;;;;;6239054;28;20106;-70
2021/10/12 10:17:56;;;;;;;55.05;35.13;;;;;;;;;;6225437;28;20156;-69
2021/10/12 10:20:58;;;;;;;28.05;18.00;;;;;;;;;;6224871;28;20511;-70
2021/10/12 10:24:03;;;;;;;24.73;16.50;;;;;;;;;;6245538;28;20220;-69
2021/10/12 10:27:06;;;;;;;21.92;14.32;;;;;;;;;;6230549;28;20053;-70
2021/10/12 10:30:25;;;;;;;14.48;9.82;;;;;;;;;;6240591;28;20063;-74
2021/10/12 10:33:29;;;;;;;15.00;10.90;;;;;;;;;;6225751;28;20100;-70
2021/10/12 10:36:33;;;;;;;15.50;10.38;;;;;;;;;;6228882;28;20372;-68
2021/10/12 10:39:36;;;;;;;16.48;10.98;;;;;;;;;;6232232;28;20133;-68
2021/10/12 10:42:52;;;;;;;10.33;9.20;;;;;;;;;;6223076;28;21387;-70
2021/10/12 10:45:55;;;;;;;12.07;9.30;;;;;;;;;;6223404;28;20389;-69
2021/10/12 10:49:03;;;;;;;;;;;;;;;;;;6233637;28;20050;-70
2021/10/12 10:52:06;;;;;;;12.70;10.52;;;;;;;;;;6227852;28;20502;-69
2021/10/12 10:55:07;;;;;;;;;;;;;;;;;;6230758;28;20054;-72
2021/10/12 10:58:15;;;;;;;16.95;12.25;;;;;;;;;;6231726;28;19931;-72
2021/10/12 11:01:39;;;;;;;16.63;12.68;;;;;;;;;;6227281;28;20123;-69
2021/10/12 11:04:46;;;;;;;16.48;12.07;;;;;;;;;;6248094;28;20051;-69
2021/10/12 11:07:48;;;;;;;13.80;12.35;;;;;;;;;;6225672;28;20444;-69
2021/10/12 11:10:56;;;;;;;15.90;12.57;;;;;;;;;;6246706;28;20119;-68
2021/10/12 11:13:59;;;;;;;14.40;11.35;;;;;;;;;;6248551;28;20049;-68
2021/10/12 11:17:10;;;;;;;16.13;12.52;;;;;;;;;;6224796;28;20080;-69
2021/10/12 11:20:14;;;;;;;15.18;11.73;;;;;;;;;;6228894;28;20053;-72
2021/10/12 11:23:22;;;;;;;16.23;12.10;;;;;;;;;;6246247;28;20083;-69
2021/10/12 11:26:27;;;;;;;14.70;12.30;;;;;;;;;;6239953;28;20041;-69
2021/10/12 11:29:28;;;;;;;15.35;11.38;;;;;;;;;;6240909;28;20489;-69
2021/10/12 11:32:32;;;;;;;14.07;11.80;;;;;;;;;;6225831;28;20121;-68
2021/10/12 11:35:35;;;;;;;16.48;11.68;;;;;;;;;;6227426;28;20095;-69
2021/10/12 11:38:39;;;;;;;14.52;11.98;;;;;;;;;;6232628;28;20095;-70
2021/10/12 11:41:41;;;;;;;16.67;12.18;;;;;;;;;;6221898;28;20398;-67
2021/10/12 11:44:42;;;;;;;15.32;11.77;;;;;;;;;;6246960;28;20041;-68
2021/10/12 11:47:45;;;;;;;13.85;12.25;;;;;;;;;;6229452;28;20504;-68
2021/10/12 11:50:47;;;;;;;;;;;;;;;;;;6229318;28;20076;-68
2021/10/12 11:53:49;;;;;;;14.00;11.10;;;;;;;;;;6233532;28;19921;-69
2021/10/12 11:56:52;;;;;;;;;;;;;;;;;;6232812;28;20122;-71
2021/10/12 11:59:55;;;;;;;13.30;11.90;;;;;;;;;;6240876;28;19921;-68
2021/10/12 12:02:58;;;;;;;15.25;12.20;;;;;;;;;;6231786;28;20523;-68
2021/10/12 12:06:00;;;;;;;15.20;12.27;;;;;;;;;;6232069;28;20137;-68
2021/10/12 12:09:04;;;;;;;17.88;12.88;;;;;;;;;;6242175;28;20041;-68
2021/10/12 12:12:06;;;;;;;14.63;12.00;;;;;;;;;;6233161;28;20518;-68
2021/10/12 12:15:09;;;;;;;16.00;12.48;;;;;;;;;;6235376;28;20041;-73
2021/10/12 12:18:16;;;;;;;14.00;12.50;;;;;;;;;;6232572;28;20120;-69
2021/10/12 12:21:31;;;;;;;15.45;13.40;;;;;;;;;;6227318;28;20751;-68
2021/10/12 12:24:32;;;;;;;16.20;14.43;;;;;;;;;;6240839;28;20086;-69
2021/10/12 12:27:51;;;;;;;14.60;12.35;;;;;;;;;;6236920;28;20048;-69
2021/10/12 12:30:53;;;;;;;13.68;11.32;;;;;;;;;;6229432;28;20136;-69
2021/10/12 12:33:57;;;;;;;15.88;12.98;;;;;;;;;;6239329;28;20094;-69
2021/10/12 12:36:58;;;;;;;14.95;12.80;;;;;;;;;;6229516;28;20060;-69
2021/10/12 12:40:00;;;;;;;15.13;11.53;;;;;;;;;;6239575;28;20060;-69
2021/10/12 12:43:16;;;;;;;16.10;11.30;;;;;;;;;;6218778;28;20450;-68
2021/10/12 12:46:19;;;;;;;14.20;12.05;;;;;;;;;;6227313;28;20195;-69
2021/10/12 12:49:23;;;;;;;13.85;12.35;;;;;;;;;;6232623;28;20044;-69
2021/10/12 12:52:27;;;;;;;15.93;12.65;;;;;;;;;;6227427;28;20529;-69
2021/10/12 12:55:38;;;;;;;16.90;12.68;;;;;;;;;;6231814;28;20903;-69
2021/10/12 12:58:41;;;;;;;15.98;13.00;;;;;;;;;;6237479;28;20050;-69
2021/10/12 13:01:51;;;;;;;15.18;11.73;;;;;;;;;;6230642;28;20457;-69
2021/10/12 13:04:54;;;;;;;15.73;11.93;;;;;;;;;;6241545;28;20132;-69
2021/10/12 13:07:56;;;;;;;;;;;;;;;;;;6229389;28;20091;-69
2021/10/12 13:10:58;;;;;;;16.63;11.55;;;;;;;;;;6231770;28;19958;-69
2021/10/12 13:14:00;;;;;;;18.50;12.18;;;;;;;;;;6237336;28;20069;-69
2021/10/12 13:17:02;;;;;;;14.35;10.85;;;;;;;;;;6217642;28;20095;-68
2021/10/12 13:20:06;;;;;;;15.48;11.18;;;;;;;;;;6236480;28;20050;-72
2021/10/12 13:23:08;;;;;;;14.23;11.05;;;;;;;;;;6234436;28;20046;-68
2021/10/12 13:26:10;;;;;;;14.55;10.45;;;;;;;;;;6231585;28;20072;-67
2021/10/12 13:29:12;;;;;;;13.90;10.65;;;;;;;;;;6245812;28;20079;-68
2021/10/12 13:32:13;;;;;;;16.35;10.95;;;;;;;;;;6223457;28;20181;-71
2021/10/12 13:35:17;;;;;;;12.15;10.10;;;;;;;;;;6230581;28;20046;-74
2021/10/12 13:38:19;;;;;;;14.38;10.10;;;;;;;;;;6239213;28;20102;-68
2021/10/12 13:41:20;;;;;;;11.80;10.27;;;;;;;;;;6222509;28;20041;-66
2021/10/12 13:44:22;;;;;;;12.93;10.65;;;;;;;;;;6232161;28;20440;-68
2021/10/12 13:47:24;;;;;;;12.63;10.32;;;;;;;;;;6219667;28;20727;-68
2021/10/12 13:50:27;;;;;;;13.43;10.55;;;;;;;;;;6229831;28;20106;-69
2021/10/12 13:53:28;;;;;;;;;;;;;;;;;;6238159;28;20042;-68
2021/10/12 13:56:30;;;;;;;12.02;10.45;;;;;;;;;;6230406;28;19920;-70
2021/10/12 13:59:31;;;;;;;13.52;9.95;;;;;;;;;;6239494;28;20129;-70
2021/10/12 14:02:33;;;;;;;13.20;10.30;;;;;;;;;;6228894;28;20895;-65
2021/10/12 14:05:37;;;;;;;12.38;9.73;;;;;;;;;;6226392;28;20199;-67
2021/10/12 14:08:39;;;;;;;12.77;9.57;;;;;;;;;;6241009;28;20061;-68
2021/10/12 14:11:42;;;;;;;16.10;11.05;;;;;;;;;;6232001;28;20045;-67
2021/10/12 14:14:44;;;;;;;14.20;10.20;;;;;;;;;;6242681;28;20045;-71
2021/10/12 14:17:45;;;;;;;14.30;9.80;;;;;;;;;;6220198;28;20529;-68
2021/10/12 14:20:51;;;;;;;12.80;10.23;;;;;;;;;;6228029;28;20484;-68
2021/10/12 14:23:52;;;;;;;13.45;9.43;;;;;;;;;;6240346;28;20076;-69
2021/10/12 14:26:54;;;;;;;15.25;10.02;;;;;;;;;;6229170;28;20041;-68
2021/10/12 14:30:02;;;;;;;12.82;9.80;;;;;;;;;;6236297;28;20497;-68
2021/10/12 14:33:03;;;;;;;14.35;10.02;;;;;;;;;;6225577;28;20045;-69
2021/10/12 14:36:06;;;;;;;13.18;9.80;;;;;;;;;;6223138;28;20350;-70
2021/10/12 14:39:08;;;;;;;;;;;;;;;;;;6225926;28;20052;-69
2021/10/12 14:42:10;;;;;;;16.33;10.07;;;;;;;;;;6230094;28;19932;-69
2021/10/12 14:45:12;;;;;;;15.20;10.02;;;;;;;;;;6223626;28;20053;-73
2021/10/12 14:48:14;;;;;;;13.25;9.13;;;;;;;;;;6232895;28;20084;-68
2021/10/12 14:51:18;;;;;;;29.75;22.17;;;;;;;;;;6222876;28;20471;-66
2021/10/12 14:54:20;;;;;;;12.43;9.95;;;;;;;;;;6232487;28;20047;-69
2021/10/12 14:57:21;;;;;;;15.80;10.50;;;;;;;;;;6227754;28;20068;-70
2021/10/12 15:00:23;;;;;;;13.73;9.45;;;;;;;;;;6227524;28;20123;-68
2021/10/12 15:03:25;;;;;;;15.50;10.82;;;;;;;;;;6232465;28;20143;-67
2021/10/12 15:06:28;;;;;;;12.30;10.57;;;;;;;;;;6224457;28;20106;-66
2021/10/12 15:09:32;;;;;;;11.65;10.45;;;;;;;;;;6234281;28;20046;-70
2021/10/12 15:12:35;;;;;;;17.05;11.13;;;;;;;;;;6225386;28;20168;-65
2021/10/12 15:15:37;;;;;;;14.27;11.45;;;;;;;;;;6219817;28;20213;-66
2021/10/12 15:18:38;;;;;;;15.25;11.85;;;;;;;;;;6230881;28;20046;-66
2021/10/12 15:21:42;;;;;;;14.90;12.82;;;;;;;;;;6226806;28;20128;-66
2021/10/12 15:24:44;;;;;;;15.70;13.40;;;;;;;;;;6241313;28;20050;-66
2021/10/12 15:27:46;;;;;;;16.33;11.95;;;;;;;;;;6233126;28;20187;-65
2021/10/12 15:30:47;;;;;;;16.92;12.68;;;;;;;;;;6224687;28;20041;-66
2021/10/12 15:33:49;;;;;;;18.15;13.63;;;;;;;;;;6221330;28;20088;-67
2021/10/12 15:36:52;;;;;;;18.90;14.00;;;;;;;;;;6225584;28;20077;-67
2021/10/12 15:39:54;;;;;;;16.77;14.23;;;;;;;;;;6237763;28;20056;-66
2021/10/12 15:42:58;;;;;;;17.45;13.55;;;;;;;;;;6224987;28;20192;-71
2021/10/12 15:46:00;;;;;;;17.08;13.00;;;;;;;;;;6224118;28;20068;-68
2021/10/12 15:49:02;;;;;;;21.85;14.13;;;;;;;;;;6234171;28;20515;-67
2021/10/12 15:52:08;;;;;;;18.98;14.10;;;;;;;;;;6227973;28;20049;-68
2021/10/12 15:55:09;;;;;;;19.02;12.60;;;;;;;;;;6235090;28;20405;-77
2021/10/12 15:58:11;;;;;;;16.92;12.82;;;;;;;;;;6232080;28;20117;-67
2021/10/12 16:01:13;;;;;;;18.83;12.82;;;;;;;;;;6226855;28;20156;-70
2021/10/12 16:04:15;;;;;;;18.63;13.93;;;;;;;;;;6234958;28;20136;-68
2021/10/12 16:07:18;;;;;;;16.92;13.13;;;;;;;;;;6225673;28;20041;-69
2021/10/12 16:10:20;;;;;;;22.08;14.13;;;;;;;;;;6231844;28;20193;-69
2021/10/12 16:13:24;;;;;;;16.08;13.73;;;;;;;;;;6239315;28;20102;-69
2021/10/12 16:20:05;;;;;;;21.45;13.70;;;;;;;;;;6230293;28;20046;-68
2021/10/12 16:23:08;;;;;;;18.23;13.38;;;;;;;;;;6225631;28;20449;-69
2021/10/12 16:26:10;;;;;;;20.10;13.98;;;;;;;;;;6227598;28;20042;-68
2021/10/12 16:29:14;;;;;;;19.52;14.68;;;;;;;;;;6243828;28;20050;-69
2021/10/12 16:32:16;;;;;;;50.75;34.20;;;;;;;;;;6218115;28;20497;-67
2021/10/12 16:35:20;;;;;;;52.90;39.25;;;;;;;;;;6225568;28;20048;-69
2021/10/12 16:38:23;;;;;;;35.05;23.77;;;;;;;;;;6234197;28;20405;-68
2021/10/12 16:41:24;;;;;;;20.20;15.15;;;;;;;;;;6229035;28;20512;-69
2021/10/12 16:44:28;;;;;;;20.98;14.23;;;;;;;;;;6237820;28;20041;-69
2021/10/12 16:47:29;;;;;;;19.92;14.50;;;;;;;;;;6227492;28;20053;-68
2021/10/12 16:50:31;;;;;;;24.10;15.55;;;;;;;;;;6230202;28;20098;-70
2021/10/12 16:53:36;;;;;;;21.75;14.60;;;;;;;;;;6237622;28;20136;-69
2021/10/12 16:56:37;;;;;;;19.30;15.15;;;;;;;;;;6234813;28;20057;-68
2021/10/12 16:59:39;;;;;;;23.23;15.75;;;;;;;;;;6242702;28;20053;-69
2021/10/12 17:02:40;;;;;;;23.88;15.35;;;;;;;;;;6225957;28;20200;-68
2021/10/12 17:05:42;;;;;;;25.05;14.57;;;;;;;;;;6231281;28;20046;-68
2021/10/12 17:08:45;;;;;;;26.08;15.18;;;;;;;;;;6244243;28;20045;-69
2021/10/12 17:11:48;;;;;;;21.88;15.13;;;;;;;;;;6203351;28;20059;-69
2021/10/12 17:14:49;;;;;;;21.03;14.57;;;;;;;;;;6241189;28;20145;-69
2021/10/12 17:17:51;;;;;;;24.55;17.20;;;;;;;;;;6222121;28;20503;-69
2021/10/12 17:20:53;;;;;;;24.67;15.50;;;;;;;;;;6220543;28;20045;-69
2021/10/12 17:23:55;;;;;;;23.73;16.70;;;;;;;;;;6234614;28;20122;-68
2021/10/12 17:26:57;;;;;;;23.27;15.93;;;;;;;;;;6223819;28;20042;-71
2021/10/12 17:29:59;;;;;;;27.60;16.45;;;;;;;;;;6226999;28;20056;-69
2021/10/12 17:33:00;;;;;;;22.08;16.15;;;;;;;;;;6220257;28;20162;-69
2021/10/12 17:36:02;;;;;;;26.48;16.58;;;;;;;;;;6224067;28;20056;-69
2021/10/12 17:39:05;;;;;;;23.65;16.55;;;;;;;;;;6228708;28;20107;-69
2021/10/12 17:42:06;;;;;;;25.63;16.47;;;;;;;;;;6221416;28;20045;-69
2021/10/12 17:45:08;;;;;;;25.75;16.60;;;;;;;;;;6227672;28;20452;-72
2021/10/12 17:48:10;;;;;;;26.48;16.42;;;;;;;;;;6221949;28;20152;-69
2021/10/12 17:51:12;;;;;;;23.20;16.58;;;;;;;;;;6217566;28;20847;-70
2021/10/12 17:54:18;;;;;;;20.85;15.65;;;;;;;;;;6230598;28;20042;-69